Time;durP1;ratioP1;P1;durP2;ratioP2;P2;SDS_P1;SDS_P2;PMS_P1;PMS_P2;Temp;Humidity;BMP_temperature;BMP_pressure;BME280_temperature;BME280_humidity;BME280_pressure;Samples;Min_cycle;Max_cycle;Signal;HPM_P1;HPM_P2
2023/01/15 00:01:39;;;;;;;7.30;1.60;;;7.80;99.90;;;6.83;100.00;100636.09;4154919;28;20508;-80
2023/01/15 00:03:40;;;;;;;7.55;1.73;;;7.80;99.90;;;6.81;100.00;100628.34;4154124;28;20515;-81
2023/01/15 00:05:41;;;;;;;7.38;1.90;;;7.80;99.90;;;6.86;100.00;100641.06;4155216;28;20022;-80
2023/01/15 00:07:43;;;;;;;7.95;1.80;;;7.80;99.90;;;6.88;100.00;100639.13;4154633;28;20037;-80
2023/01/15 00:09:43;;;;;;;8.10;2.00;;;7.80;99.90;;;6.93;100.00;100655.31;4153937;28;20026;-80
2023/01/15 00:11:44;;;;;;;9.07;2.13;;;7.80;99.90;;;6.96;100.00;100658.47;4155128;28;20029;-80
2023/01/15 00:13:46;;;;;;;9.52;2.30;;;7.80;99.90;;;6.96;100.00;100671.59;4154588;28;20049;-80
2023/01/15 00:15:47;;;;;;;5.93;1.38;;;7.90;99.90;;;6.94;100.00;100651.72;4153803;28;20026;-80
2023/01/15 00:17:48;;;;;;;6.85;1.17;;;7.90;99.90;;;6.99;100.00;100637.22;4165436;28;20049;-80
2023/01/15 00:19:49;;;;;;;3.78;1.08;;;7.90;99.90;;;6.81;100.00;100622.31;4153806;28;20129;-80
2023/01/15 00:21:51;;;;;;;4.10;1.20;;;7.80;99.90;;;6.84;100.00;100629.91;4137463;28;20093;-80
2023/01/15 00:28:37;;;;;;;3.78;1.10;;;7.80;99.90;;;6.80;100.00;100636.38;4159235;28;20532;-80
2023/01/15 00:30:41;;;;;;;8.10;1.27;;;7.70;99.90;;;6.82;100.00;100634.44;4154564;28;20030;-80
2023/01/15 00:32:43;;;;;;;2.90;1.15;;;7.70;99.90;;;6.78;100.00;100644.34;4154804;28;20025;-80
2023/01/15 00:34:44;;;;;;;3.85;0.80;;;7.70;99.90;;;6.73;100.00;100643.94;4153695;28;20474;-80
2023/01/15 00:36:45;;;;;;;3.90;0.90;;;7.70;99.90;;;6.73;100.00;100641.31;4158052;28;20038;-80
2023/01/15 00:38:46;;;;;;;5.28;1.02;;;7.70;99.90;;;6.69;100.00;100656.47;4154512;28;20022;-80
2023/01/15 00:40:51;;;;;;;1.55;0.70;;;7.70;99.90;;;6.82;100.00;100647.53;4153632;28;20038;-80
2023/01/15 00:42:52;;;;;;;5.20;0.80;;;7.70;99.90;;;6.86;100.00;100649.78;4154272;28;20396;-80
2023/01/15 00:44:53;;;;;;;5.07;1.45;;;7.70;99.90;;;6.72;100.00;100652.75;4153238;28;20033;-80
2023/01/15 00:46:54;;;;;;;3.38;0.70;;;7.70;99.90;;;6.82;100.00;100661.47;4156641;28;20386;-80
2023/01/15 00:48:55;;;;;;;4.50;1.05;;;7.70;99.90;;;6.76;100.00;100671.66;4154572;28;20034;-80
2023/01/15 00:50:56;;;;;;;3.05;0.88;;;7.70;99.90;;;6.90;100.00;100674.75;4154447;28;20448;-80
2023/01/15 00:52:57;;;;;;;4.15;0.60;;;7.70;99.90;;;6.84;100.00;100677.09;4153535;28;20112;-80
2023/01/15 00:54:58;;;;;;;5.00;0.95;;;7.80;99.90;;;6.71;100.00;100671.25;4153992;28;20029;-80
2023/01/15 00:56:59;;;;;;;4.85;1.80;;;7.70;99.90;;;6.69;100.00;100681.84;4160845;28;20409;-80
2023/01/15 00:59:04;;;;;;;2.28;1.05;;;7.70;99.90;;;6.82;100.00;100676.38;4154189;28;20034;-80
2023/01/15 01:01:05;;;;;;;3.25;1.52;;;7.70;99.90;;;6.73;100.00;100685.88;4153214;28;20032;-80
2023/01/15 01:03:06;;;;;;;5.00;1.00;;;7.70;99.90;;;6.82;100.00;100702.59;4136665;28;20596;-80
2023/01/15 01:05:07;;;;;;;5.40;1.25;;;7.70;99.90;;;6.84;100.00;100698.06;4154383;28;20125;-80
2023/01/15 01:07:09;;;;;;;3.75;0.60;;;7.70;99.90;;;6.78;100.00;100716.94;4156315;28;20022;-80
2023/01/15 01:09:14;;;;;;;5.28;1.42;;;7.70;99.90;;;6.74;100.00;100708.50;4153001;28;20026;-80
2023/01/15 01:11:22;;;;;;;2.83;1.05;;;7.70;99.90;;;6.72;100.00;100718.28;4154522;28;20036;-80
2023/01/15 01:13:23;;;;;;;4.30;0.90;;;7.70;99.90;;;6.86;100.00;100731.06;4152873;28;20457;-79
2023/01/15 01:15:24;;;;;;;5.53;1.10;;;7.70;99.90;;;6.92;100.00;100734.94;4154088;28;20030;-80
2023/01/15 01:17:25;;;;;;;7.72;1.52;;;7.80;99.90;;;6.73;100.00;100734.84;4155841;28;20058;-80
2023/01/15 01:19:26;;;;;;;7.03;1.13;;;7.80;99.90;;;6.75;100.00;100723.25;4154498;28;20390;-80
2023/01/15 01:21:27;;;;;;;5.22;1.13;;;7.80;99.90;;;6.75;100.00;100714.59;4152741;28;20049;-80
2023/01/15 01:23:28;;;;;;;8.88;2.17;;;7.70;99.90;;;6.71;100.00;100723.66;4154134;28;20086;-80
2023/01/15 01:25:29;;;;;;;7.03;0.95;;;7.70;99.90;;;6.65;100.00;100718.00;4166971;28;20397;-80
2023/01/15 01:27:30;;;;;;;3.92;0.60;;;7.60;99.90;;;6.59;100.00;100722.94;4166801;28;20071;-80
2023/01/15 01:29:31;;;;;;;6.25;1.25;;;7.60;99.90;;;6.59;100.00;100723.75;4153961;28;20025;-80
2023/01/15 01:31:32;;;;;;;2.85;1.00;;;7.60;99.90;;;6.53;100.00;100715.59;4153656;28;20095;-80
2023/01/15 01:33:33;;;;;;;4.97;1.50;;;7.60;99.90;;;6.55;100.00;100730.22;4152655;28;20091;-80
2023/01/15 01:35:34;;;;;;;4.75;1.40;;;7.50;99.90;;;6.53;100.00;100729.53;4152663;28;20022;-80
2023/01/15 01:37:35;;;;;;;3.47;1.15;;;7.50;99.90;;;6.50;100.00;100724.53;4146515;28;20054;-80
2023/01/15 01:39:36;;;;;;;6.75;1.25;;;7.50;99.90;;;6.51;100.00;100726.19;4153799;28;20065;-81
2023/01/15 01:41:38;;;;;;;2.03;0.90;;;7.50;99.90;;;6.45;100.00;100713.59;4152440;28;20026;-80
2023/01/15 01:44:36;;;;;;;3.03;0.80;;;7.50;99.90;;;6.43;100.00;100727.81;4152184;28;20112;-80
2023/01/15 01:46:36;;;;;;;4.40;1.55;;;7.40;99.90;;;6.38;100.00;100722.97;4138427;28;20045;-80
2023/01/15 01:48:37;;;;;;;4.53;1.05;;;7.40;99.90;;;6.39;100.00;100729.84;4153713;28;20077;-80
2023/01/15 01:50:40;;;;;;;10.13;1.40;;;7.40;99.90;;;6.33;100.00;100730.38;4153635;28;20041;-80
2023/01/15 01:52:57;;;;;;;4.80;1.10;;;7.30;99.90;;;6.39;100.00;100736.91;4151863;28;20041;-81
2023/01/15 01:54:58;;;;;;;4.03;0.98;;;7.30;99.90;;;6.32;100.00;100736.56;4151236;28;20030;-80
2023/01/15 01:57:00;;;;;;;6.40;1.70;;;7.30;99.90;;;6.32;100.00;100733.97;4152266;28;20054;-80
2023/01/15 01:59:03;;;;;;;6.38;1.35;;;7.30;99.90;;;6.28;100.00;100743.03;4152194;28;20109;-81
2023/01/15 02:01:04;;;;;;;4.65;0.95;;;7.30;99.90;;;6.32;100.00;100747.06;4152321;28;20081;-80
2023/01/15 02:03:08;;;;;;;5.50;1.63;;;7.30;99.90;;;6.28;100.00;100737.78;4152115;28;20586;-80
2023/01/15 02:05:20;;;;;;;3.87;1.93;;;7.20;99.90;;;6.30;100.00;100743.72;4152315;28;20026;-80
2023/01/15 02:07:21;;;;;;;3.92;1.20;;;7.30;99.90;;;6.21;100.00;100749.75;4155188;28;20269;-80
2023/01/15 02:09:22;;;;;;;2.88;0.82;;;7.20;99.90;;;6.22;100.00;100755.78;4153231;28;20440;-80
2023/01/15 02:11:24;;;;;;;4.13;1.20;;;7.20;99.90;;;6.26;100.00;100758.06;4153531;28;20029;-80
2023/01/15 02:13:38;;;;;;;3.83;1.23;;;7.20;99.90;;;6.29;100.00;100762.19;4153078;28;20156;-80
2023/01/15 02:15:47;;;;;;;2.88;0.95;;;7.20;99.90;;;6.20;100.00;100753.31;4152169;28;20029;-80
2023/01/15 02:18:30;;;;;;;5.45;1.10;;;7.20;99.90;;;6.25;100.00;100766.84;4151636;28;20076;-80
2023/01/15 02:21:10;;;;;;;5.25;1.20;;;7.20;99.90;;;6.21;100.00;100767.25;4135107;28;20198;-80
2023/01/15 02:24:00;;;;;;;8.00;1.30;;;7.20;99.90;;;6.19;100.00;100775.22;4153287;28;20038;-80
2023/01/15 02:26:16;;;;;;;3.58;1.30;;;7.20;99.90;;;6.19;100.00;100762.13;4135982;28;20072;-80
2023/01/15 02:28:37;;;;;;;5.18;1.25;;;7.20;99.90;;;6.12;100.00;100774.88;4159906;28;20038;-80
2023/01/15 02:30:46;;;;;;;5.78;1.30;;;7.20;99.90;;;6.27;100.00;100769.38;4151744;28;20029;-81
2023/01/15 02:32:59;;;;;;;5.80;1.02;;;7.10;99.90;;;6.16;100.00;100765.00;4152929;28;20034;-81
2023/01/15 02:35:18;;;;;;;5.68;1.02;;;7.20;99.90;;;6.18;100.00;100776.19;4151968;28;20033;-80
2023/01/15 02:37:26;;;;;;;5.00;1.30;;;7.20;99.90;;;6.16;100.00;100767.63;4161977;28;20033;-80
2023/01/15 02:39:31;;;;;;;7.53;1.38;;;7.20;99.90;;;6.18;100.00;100784.06;4151945;28;20026;-80
2023/01/15 02:41:38;;;;;;;5.32;1.02;;;7.10;99.90;;;6.15;100.00;100781.69;4151739;28;20033;-80
2023/01/15 02:43:39;;;;;;;4.65;1.60;;;7.10;99.90;;;6.09;100.00;100782.19;4151330;28;20116;-80
2023/01/15 02:45:44;;;;;;;7.13;1.52;;;7.10;99.90;;;6.08;100.00;100775.28;4151923;28;20033;-80
2023/01/15 02:47:46;;;;;;;7.60;1.20;;;7.10;99.90;;;6.09;100.00;100775.16;4142050;28;20469;-80
2023/01/15 02:49:48;;;;;;;6.72;2.03;;;7.10;99.90;;;6.09;100.00;100772.53;4151640;28;20571;-80
2023/01/15 02:52:09;;;;;;;4.10;1.40;;;7.10;99.90;;;6.04;100.00;100760.78;4151404;28;20026;-80
2023/01/15 02:54:15;;;;;;;3.85;1.00;;;7.10;99.90;;;6.01;100.00;100769.72;4151451;28;20112;-80
2023/01/15 02:56:22;;;;;;;4.20;1.48;;;7.00;99.90;;;6.06;100.00;100766.72;4155460;28;20066;-80
2023/01/15 02:58:31;;;;;;;11.95;1.40;;;7.00;99.90;;;5.96;100.00;100760.59;4138847;28;20507;-80
2023/01/15 03:00:38;;;;;;;10.75;1.20;;;7.10;99.90;;;6.00;100.00;100772.47;4151482;28;20018;-80
2023/01/15 03:02:47;;;;;;;6.25;1.10;;;7.00;99.90;;;5.97;100.00;100770.91;4152549;28;20094;-80
2023/01/15 03:05:42;;;;;;;5.30;1.58;;;7.00;99.90;;;6.05;100.00;100779.00;4151636;28;20034;-80
2023/01/15 03:07:55;;;;;;;6.57;1.27;;;7.00;99.90;;;6.02;100.00;100771.38;4117709;28;20070;-80
2023/01/15 03:09:57;;;;;;;7.32;1.05;;;7.00;99.90;;;6.06;100.00;100782.44;4118736;28;20034;-80
2023/01/15 03:12:16;;;;;;;6.45;1.20;;;7.10;99.90;;;6.07;100.00;100781.47;4120983;28;20050;-80
2023/01/15 03:14:40;;;;;;;9.18;1.35;;;7.00;99.90;;;6.13;100.00;100794.06;4152352;28;20485;-80
2023/01/15 03:16:46;;;;;;;5.30;1.20;;;7.00;99.90;;;6.09;100.00;100797.91;4152323;28;20026;-80
2023/01/15 03:19:06;;;;;;;2.05;1.10;;;7.10;99.90;;;6.12;100.00;100800.28;4152473;28;20105;-80
2023/01/15 03:21:11;;;;;;;5.50;1.48;;;7.10;99.90;;;6.02;100.00;100797.56;4152597;28;20366;-80
2023/01/15 03:23:15;;;;;;;9.85;2.15;;;7.00;99.90;;;6.11;100.00;100795.97;4151400;28;20108;-80
2023/01/15 03:25:22;;;;;;;10.35;1.45;;;7.00;99.90;;;6.12;100.00;100800.28;4163618;28;20505;-80
2023/01/15 03:27:23;;;;;;;10.95;2.40;;;7.00;99.90;;;6.04;100.00;100789.56;4162544;28;20448;-80
2023/01/15 03:29:31;;;;;;;7.43;1.92;;;7.00;99.90;;;6.18;100.00;100799.78;4151370;28;20195;-80
2023/01/15 03:31:34;;;;;;;5.45;1.15;;;7.00;99.90;;;6.16;100.00;100799.03;4151180;28;20033;-80
2023/01/15 03:33:35;;;;;;;6.88;1.02;;;7.10;99.90;;;6.22;100.00;100793.31;4150903;28;20108;-80
2023/01/15 03:35:57;;;;;;;7.15;1.50;;;7.10;99.90;;;6.04;100.00;100790.41;4150982;28;20026;-80
2023/01/15 03:37:58;;;;;;;8.13;1.50;;;7.10;99.90;;;6.28;100.00;100792.78;4143797;28;20481;-80
2023/01/15 03:40:00;;;;;;;5.60;1.60;;;7.10;99.90;;;6.19;100.00;100809.28;4152234;28;20021;-80
2023/01/15 03:42:31;;;;;;;6.65;1.17;;;7.10;99.90;;;6.15;100.00;100812.28;4150935;28;20030;-80
2023/01/15 03:45:02;;;;;;;8.50;2.08;;;7.10;99.90;;;6.05;100.00;100814.81;4152648;28;20030;-80
2023/01/15 03:47:59;;;;;;;3.85;0.88;;;7.10;99.90;;;6.10;100.00;100816.09;4156747;28;20022;-80
2023/01/15 03:50:24;;;;;;;6.78;1.67;;;7.00;99.90;;;6.09;100.00;100813.63;4070457;29;20028;-80
2023/01/15 03:52:49;;;;;;;8.50;1.38;;;7.00;99.90;;;5.99;100.00;100815.31;4071158;29;20449;-80
2023/01/15 03:55:03;;;;;;;9.45;1.35;;;7.00;99.90;;;6.04;100.00;100815.75;4116694;28;20049;-80
2023/01/15 03:57:17;;;;;;;5.15;1.17;;;7.00;99.90;;;6.07;100.00;100805.88;4154060;28;20378;-79
2023/01/15 03:59:36;;;;;;;7.05;1.42;;;7.00;99.90;;;5.99;100.00;100802.22;4151104;28;20034;-80
2023/01/15 04:01:41;;;;;;;7.85;1.02;;;7.00;99.90;;;6.01;100.00;100811.59;4152179;28;20026;-80
2023/01/15 04:03:44;;;;;;;12.68;2.08;;;6.90;99.90;;;5.98;100.00;100800.56;4152139;28;20481;-80
2023/01/15 04:05:47;;;;;;;9.25;1.45;;;6.90;99.90;;;5.93;100.00;100813.19;4150866;28;20038;-81
2023/01/15 04:07:49;;;;;;;12.70;2.15;;;6.90;99.90;;;5.97;100.00;100804.16;4151775;28;20528;-80
2023/01/15 04:09:50;;;;;;;10.73;1.52;;;6.90;99.90;;;5.85;100.00;100811.22;4151070;28;20034;-80
2023/01/15 04:11:51;;;;;;;9.95;1.08;;;6.90;99.90;;;5.82;100.00;100816.66;4134492;28;20081;-81
2023/01/15 04:13:53;;;;;;;4.40;1.25;;;6.80;99.90;;;5.72;100.00;100813.09;4151696;28;20038;-81
2023/01/15 04:15:54;;;;;;;7.07;1.90;;;6.80;99.90;;;5.70;100.00;100815.03;4150500;28;20080;-80
2023/01/15 04:17:55;;;;;;;10.57;2.00;;;6.70;99.90;;;5.73;100.00;100821.81;4163222;28;20096;-80
2023/01/15 04:19:56;;;;;;;9.57;2.35;;;6.70;99.90;;;5.78;100.00;100814.41;4153918;28;20497;-81
2023/01/15 04:21:57;;;;;;;8.50;1.42;;;6.70;99.90;;;5.83;100.00;100807.00;4155060;28;20038;-81
2023/01/15 04:23:58;;;;;;;8.90;1.27;;;6.80;99.90;;;5.81;100.00;100816.78;4153610;28;20030;-80
2023/01/15 04:25:59;;;;;;;13.43;1.48;;;6.80;99.90;;;5.79;100.00;100821.31;4153999;28;20041;-81
2023/01/15 04:28:00;;;;;;;10.65;1.73;;;6.70;99.90;;;5.68;100.00;100822.16;4164914;28;20511;-80
2023/01/15 04:30:01;;;;;;;9.55;2.08;;;6.70;99.90;;;5.62;100.00;100829.66;4154916;28;20038;-80
2023/01/15 04:32:02;;;;;;;11.82;1.50;;;6.60;99.90;;;5.65;100.00;100832.03;4154884;28;20029;-80
2023/01/15 04:34:03;;;;;;;7.90;1.98;;;6.60;99.90;;;5.60;100.00;100837.63;4154863;28;20481;-80
2023/01/15 04:36:05;;;;;;;5.15;2.00;;;6.60;99.90;;;5.40;100.00;100831.38;4155876;28;20631;-80
2023/01/15 04:38:06;;;;;;;8.40;2.45;;;6.50;99.90;;;5.32;100.00;100844.19;4160315;28;20026;-80
2023/01/15 04:40:08;;;;;;;10.10;2.72;;;6.40;99.90;;;5.19;100.00;100840.91;4154674;28;20026;-80
2023/01/15 04:44:35;;;;;;;10.15;1.90;;;6.20;99.90;;;5.08;100.00;100845.31;4153895;28;20111;-80
2023/01/15 04:46:46;;;;;;;7.97;2.42;;;6.10;99.90;;;5.01;100.00;100850.16;4159637;28;20033;-80
2023/01/15 04:48:47;;;;;;;6.93;1.77;;;6.00;99.90;;;4.97;100.00;100846.94;4141151;28;20029;-80
2023/01/15 04:50:48;;;;;;;9.18;2.42;;;5.90;99.90;;;4.97;100.00;100840.88;4154576;28;20022;-80
2023/01/15 04:52:49;;;;;;;7.45;1.73;;;5.90;99.90;;;4.95;100.00;100845.41;4153194;28;20157;-80
2023/01/15 04:54:52;;;;;;;11.82;2.10;;;5.90;99.90;;;4.85;100.00;100839.19;4154031;28;20091;-81
2023/01/15 04:56:54;;;;;;;7.95;2.10;;;5.80;99.90;;;4.78;100.00;100843.25;4156391;28;20010;-80
2023/01/15 04:58:55;;;;;;;10.27;2.13;;;5.80;99.90;;;4.74;100.00;100841.81;4153101;28;20034;-80
2023/01/15 05:00:56;;;;;;;14.23;2.28;;;5.70;99.90;;;4.68;100.00;100842.28;4154332;28;20596;-80
2023/01/15 05:02:57;;;;;;;8.77;2.65;;;5.70;99.90;;;4.73;100.00;100845.34;4153026;28;20033;-80
2023/01/15 05:04:58;;;;;;;13.52;2.22;;;5.70;99.90;;;4.83;100.00;100862.03;4154305;28;20030;-80
2023/01/15 05:07:01;;;;;;;11.23;2.10;;;5.70;99.90;;;4.85;100.00;100860.13;4157668;28;20401;-80
2023/01/15 05:09:04;;;;;;;11.23;1.98;;;5.80;99.90;;;4.88;100.00;100862.50;4153096;28;20026;-80
2023/01/15 05:11:06;;;;;;;8.13;2.33;;;5.80;99.90;;;5.07;100.00;100864.53;4152856;28;20168;-80
2023/01/15 05:13:07;;;;;;;12.63;2.80;;;5.90;99.90;;;5.05;100.00;100872.47;4152718;28;20506;-80
2023/01/15 05:15:08;;;;;;;13.38;2.25;;;6.00;99.90;;;5.13;100.00;100869.31;4153059;28;20034;-80
2023/01/15 05:17:09;;;;;;;6.63;1.50;;;6.00;99.90;;;5.02;100.00;100859.66;4163095;28;20060;-81
2023/01/15 05:19:10;;;;;;;9.15;1.50;;;6.00;99.90;;;4.96;100.00;100867.97;4156395;28;20021;-80
2023/01/15 05:21:24;;;;;;;7.30;1.45;;;5.90;99.90;;;4.88;100.00;100870.34;4154168;28;20489;-80
2023/01/15 05:23:24;;;;;;;7.43;1.38;;;5.90;99.90;;;4.86;100.00;100872.25;4154229;28;20448;-80
2023/01/15 05:25:25;;;;;;;7.95;1.60;;;5.90;99.90;;;4.78;100.00;100866.78;4166542;28;20052;-80
2023/01/15 05:27:26;;;;;;;13.93;2.17;;;5.80;99.90;;;4.69;100.00;100870.06;4162701;28;20025;-80
2023/01/15 05:29:27;;;;;;;8.68;1.65;;;5.80;99.90;;;4.66;100.00;100867.69;4153581;28;20032;-80
2023/01/15 05:31:29;;;;;;;8.73;1.98;;;5.70;99.90;;;4.63;100.00;100873.16;4152411;28;20036;-79
2023/01/15 05:33:30;;;;;;;10.15;2.70;;;5.70;99.90;;;4.52;100.00;100867.88;4152695;28;20034;-80
2023/01/15 05:35:31;;;;;;;9.95;3.35;;;5.60;99.90;;;4.59;100.00;100877.75;4136210;28;20505;-80
2023/01/15 05:37:32;;;;;;;6.72;2.25;;;5.60;99.90;;;4.52;100.00;100876.53;4160993;28;20025;-79
2023/01/15 05:39:33;;;;;;;12.18;2.20;;;5.60;99.90;;;4.45;100.00;100870.09;4152468;28;20030;-80
2023/01/15 05:41:49;;;;;;;6.50;1.80;;;5.50;99.90;;;4.42;100.00;100870.34;4152717;28;20022;-80
2023/01/15 05:43:50;;;;;;;8.93;1.80;;;5.40;99.90;;;4.39;100.00;100871.38;4153617;28;20026;-80
2023/01/15 05:45:51;;;;;;;11.23;2.83;;;5.40;99.90;;;4.40;100.00;100865.22;4152733;28;20543;-80
2023/01/15 05:47:52;;;;;;;6.47;1.95;;;5.40;99.90;;;4.33;100.00;100853.56;4158252;28;20029;-80
2023/01/15 05:49:53;;;;;;;10.77;2.13;;;5.40;99.90;;;4.37;100.00;100857.63;4152457;28;20022;-80
2023/01/15 05:51:54;;;;;;;10.23;2.03;;;5.40;99.90;;;4.36;100.00;100858.56;4152414;28;20649;-81
2023/01/15 05:53:59;;;;;;;10.38;2.08;;;5.30;99.90;;;4.37;100.00;100856.78;4153688;28;20497;-81
2023/01/15 05:56:00;;;;;;;;;;;5.40;99.90;;;4.30;100.00;100855.59;4152864;28;20022;-81
2023/01/15 05:58:01;;;;;;;10.68;2.28;;;5.30;99.90;;;4.30;100.00;100866.03;4155516;28;19910;-80
2023/01/15 06:00:05;;;;;;;6.05;1.50;;;5.30;99.90;;;4.36;100.00;100881.25;4152211;28;20512;-80
2023/01/15 06:02:06;;;;;;;8.65;1.40;;;5.30;99.90;;;4.38;100.00;100861.91;4153270;28;20037;-80
2023/01/15 06:04:09;;;;;;;9.15;1.40;;;5.30;99.90;;;4.40;100.00;100860.00;4152272;28;20034;-81
2023/01/15 06:06:13;;;;;;;7.13;2.17;;;5.40;99.90;;;4.41;100.00;100871.28;4135948;28;20025;-80
2023/01/15 06:08:14;;;;;;;12.25;1.98;;;5.30;99.90;;;4.43;100.00;100864.16;4152297;28;20091;-80
2023/01/15 06:10:16;;;;;;;13.32;2.85;;;5.40;99.90;;;4.41;100.00;100871.28;4153455;28;20485;-81
2023/01/15 06:12:17;;;;;;;9.52;2.25;;;5.40;99.90;;;4.35;100.00;100866.53;4153060;28;20030;-80
2023/01/15 06:14:18;;;;;;;9.82;1.80;;;5.30;99.90;;;4.34;100.00;100863.06;4151957;28;20483;-80
2023/01/15 06:16:20;;;;;;;11.10;1.98;;;5.30;99.90;;;4.35;100.00;100862.13;4153404;28;20036;-80
2023/01/15 06:18:22;;;;;;;10.68;2.25;;;5.30;99.90;;;4.34;100.00;100862.22;4161987;28;20049;-81
2023/01/15 06:20:23;;;;;;;12.45;1.67;;;5.30;99.90;;;4.32;100.00;100851.91;4153201;28;20048;-80
2023/01/15 06:22:24;;;;;;;9.00;1.83;;;5.30;99.90;;;4.27;100.00;100850.59;4151774;28;20195;-80
2023/01/15 06:24:25;;;;;;;7.68;1.90;;;5.30;99.90;;;4.30;100.00;100848.56;4156356;28;20030;-80
2023/01/15 06:26:26;;;;;;;5.07;1.00;;;5.30;99.90;;;4.36;100.00;100853.34;4163238;28;20147;-81
2023/01/15 06:28:28;;;;;;;8.35;1.80;;;5.30;99.90;;;4.28;100.00;100844.41;4157738;28;20079;-80
2023/01/15 06:30:29;;;;;;;7.22;1.80;;;5.30;99.90;;;4.28;100.00;100836.56;4151772;28;20117;-81
2023/01/15 06:32:29;;;;;;;10.07;1.33;;;5.30;99.90;;;4.33;100.00;100840.50;4153229;28;20029;-81
2023/01/15 06:34:30;;;;;;;9.77;2.13;;;5.30;99.90;;;4.35;100.00;100828.19;4153038;28;20072;-80
2023/01/15 06:36:31;;;;;;;9.20;1.58;;;5.30;99.90;;;4.46;100.00;100843.03;4154490;28;20033;-80
2023/01/15 06:38:33;;;;;;;8.57;1.60;;;5.40;99.90;;;4.47;100.00;100845.56;4154497;28;20509;-80
2023/01/15 06:40:34;;;;;;;7.43;1.40;;;5.40;99.90;;;4.46;100.00;100850.88;4151981;28;20041;-80
2023/01/15 06:47:21;;;;;;;9.52;2.40;;;5.60;99.90;;;4.66;100.00;100855.44;4156363;28;20064;-80
2023/01/15 06:49:22;;;;;;;8.18;2.28;;;5.60;99.90;;;4.62;100.00;100859.25;4151704;28;20037;-80
2023/01/15 06:51:24;;;;;;;7.80;1.58;;;5.60;99.90;;;4.55;100.00;100857.19;4152717;28;20026;-80
2023/01/15 06:53:25;;;;;;;11.20;2.20;;;5.60;99.90;;;4.57;100.00;100863.16;4151335;28;20045;-80
2023/01/15 06:55:26;;;;;;;9.00;1.88;;;5.50;99.90;;;4.54;100.00;100866.00;4151617;28;20520;-80
2023/01/15 06:57:26;;;;;;;10.80;2.28;;;5.50;99.90;;;4.57;100.00;100871.00;4157641;28;20061;-80
2023/01/15 06:59:28;;;;;;;10.32;2.33;;;5.50;99.90;;;4.62;100.00;100874.09;4152589;28;20041;-80
2023/01/15 07:01:30;;;;;;;12.95;2.30;;;5.50;99.90;;;4.59;100.00;100869.94;4152497;28;20397;-80
2023/01/15 07:03:30;;;;;;;14.52;2.30;;;5.50;99.90;;;4.55;100.00;100868.47;4152542;28;20037;-81
2023/01/15 07:05:31;;;;;;;8.90;1.83;;;5.50;99.90;;;4.78;100.00;100882.44;4151496;28;20030;-80
2023/01/15 07:07:33;;;;;;;11.25;2.03;;;5.60;99.90;;;4.70;100.00;100877.78;4154991;28;20030;-80
2023/01/15 07:09:34;;;;;;;16.33;2.60;;;5.70;99.90;;;4.74;100.00;100876.63;4151049;28;20038;-80
2023/01/15 07:11:48;;;;;;;9.27;2.15;;;5.70;99.90;;;4.77;100.00;100875.56;4156040;28;20029;-80
2023/01/15 07:13:48;;;;;;;18.30;3.78;;;5.70;99.90;;;5.09;100.00;100878.31;4156869;28;20034;-80
2023/01/15 07:15:49;;;;;;;14.77;3.03;;;5.90;99.90;;;5.11;100.00;100882.47;4153636;28;20025;-80
2023/01/15 07:17:57;;;;;;;8.07;2.33;;;5.90;99.90;;;4.97;100.00;100880.94;4139233;28;20046;-81
2023/01/15 07:19:58;;;;;;;13.35;2.35;;;5.90;99.90;;;5.02;100.00;100885.78;4151260;28;20026;-80
2023/01/15 07:21:59;;;;;;;11.32;2.65;;;5.90;99.90;;;5.03;100.00;100896.16;4151402;28;20090;-80
2023/01/15 07:24:00;;;;;;;13.27;2.78;;;5.90;99.90;;;5.02;100.00;100891.84;4152963;28;20026;-80
2023/01/15 07:26:01;;;;;;;14.65;2.58;;;6.00;99.90;;;5.01;100.00;100886.75;4154685;28;20025;-80
2023/01/15 07:28:02;;;;;;;10.68;2.13;;;6.00;99.90;;;5.08;100.00;100892.34;4160675;28;20026;-80
2023/01/15 07:30:03;;;;;;;9.73;1.83;;;6.00;99.90;;;5.18;100.00;100891.53;4151247;28;20073;-80
2023/01/15 07:32:05;;;;;;;13.18;2.78;;;6.00;99.90;;;5.19;100.00;100889.75;4151447;28;20025;-80
2023/01/15 07:34:06;;;;;;;13.50;2.45;;;6.10;99.90;;;5.08;100.00;100884.53;4150995;28;20153;-80
2023/01/15 07:36:07;;;;;;;8.95;2.17;;;6.10;99.90;;;5.07;100.00;100893.31;4155040;28;20024;-80
2023/01/15 07:38:08;;;;;;;8.93;2.10;;;6.10;99.90;;;5.26;100.00;100886.53;4158074;28;20026;-80
2023/01/15 07:40:10;;;;;;;8.32;2.10;;;6.10;99.90;;;5.22;100.00;100882.50;4151112;28;20018;-81
2023/01/15 07:51:34;;;;;;;9.52;3.45;;;6.80;99.90;;;5.90;100.00;100881.50;4152255;28;20037;-80
2023/01/15 07:53:35;;;;;;;6.20;1.35;;;6.90;99.90;;;5.79;100.00;100876.28;4153250;28;20034;-80
2023/01/15 07:55:36;;;;;;;8.02;1.40;;;6.80;99.90;;;5.86;100.00;100888.78;4137783;28;20026;-80
2023/01/15 07:57:37;;;;;;;8.75;2.55;;;6.80;99.90;;;5.94;100.00;100888.97;4159525;28;20018;-81
2023/01/15 07:59:38;;;;;;;9.48;3.08;;;6.80;99.90;;;5.97;100.00;100890.53;4154152;28;20033;-81
2023/01/15 08:01:39;;;;;;;10.20;3.13;;;6.80;99.90;;;5.90;100.00;100882.34;4154170;28;20034;-81
2023/01/15 08:03:40;;;;;;;8.82;3.05;;;6.80;99.90;;;5.98;100.00;100884.34;4155344;28;20034;-80
2023/01/15 08:05:40;;;;;;;5.13;2.30;;;6.90;99.90;;;5.87;100.00;100893.06;4154129;28;20022;-81
2023/01/15 08:07:42;;;;;;;10.35;2.25;;;6.80;99.90;;;5.77;100.00;100875.53;4159368;28;20096;-80
2023/01/15 08:09:43;;;;;;;10.95;2.70;;;6.80;99.90;;;5.71;100.00;100873.41;4155104;28;20034;-80
2023/01/15 08:16:23;;;;;;;10.77;2.90;;;6.80;99.90;;;5.94;100.00;100868.03;4155017;28;20032;-80
2023/01/15 08:18:24;;;;;;;10.38;2.50;;;6.90;99.90;;;5.95;100.00;100880.19;4154692;28;20037;-80
2023/01/15 08:20:26;;;;;;;14.57;2.05;;;6.90;99.90;;;5.90;100.00;100871.03;4153767;28;20077;-80
2023/01/15 08:22:27;;;;;;;9.88;1.95;;;6.80;99.90;;;6.03;100.00;100882.19;4153746;28;20461;-80
2023/01/15 08:24:28;;;;;;;10.48;3.05;;;6.90;99.90;;;6.03;100.00;100882.19;4159652;28;20030;-80
2023/01/15 08:26:29;;;;;;;8.65;2.40;;;6.90;99.90;;;5.99;100.00;100886.84;4168770;28;20018;-81
2023/01/15 08:28:29;;;;;;;6.22;1.90;;;6.90;99.90;;;6.02;100.00;100891.84;4153496;28;20037;-80
2023/01/15 08:30:30;;;;;;;7.07;2.38;;;6.90;99.90;;;5.95;100.00;100884.56;4153477;28;20068;-80
2023/01/15 08:32:31;;;;;;;9.82;2.72;;;6.90;99.90;;;6.04;100.00;100887.28;4155015;28;20029;-80
2023/01/15 08:34:32;;;;;;;11.98;2.28;;;6.90;99.90;;;6.15;100.00;100886.44;4154635;28;20413;-80
2023/01/15 08:36:33;;;;;;;7.28;2.72;;;7.00;99.90;;;6.06;100.00;100882.75;4154763;28;20508;-81
2023/01/15 08:38:34;;;;;;;11.55;1.83;;;7.00;99.90;;;6.04;100.00;100891.69;4154585;28;20524;-79
2023/01/15 08:40:57;;;;;;;11.10;1.50;;;7.00;99.90;;;6.10;100.00;100888.59;4154797;28;20029;-79
2023/01/15 08:42:56;;;;;;;7.85;2.42;;;7.00;99.90;;;6.07;100.00;100884.44;4153346;28;20038;-78
2023/01/15 08:44:57;;;;;;;10.30;2.83;;;7.00;99.90;;;5.95;100.00;100885.41;4154609;28;20484;-79
2023/01/15 08:46:58;;;;;;;12.32;2.40;;;7.00;99.90;;;6.09;100.00;100892.97;4160862;28;20037;-79
2023/01/15 08:48:59;;;;;;;7.32;2.65;;;7.00;99.90;;;6.00;100.00;100891.09;4153479;28;20037;-78
2023/01/15 08:51:08;;;;;;;10.32;2.15;;;7.00;99.90;;;6.01;100.00;100894.56;4154950;28;20036;-79
2023/01/15 08:53:09;;;;;;;14.20;2.53;;;7.00;99.90;;;6.08;100.00;100900.97;4154458;28;20121;-79
2023/01/15 08:55:10;;;;;;;11.20;1.73;;;7.00;99.90;;;6.03;100.00;100897.91;4153619;28;20026;-78
2023/01/15 08:57:12;;;;;;;9.68;1.40;;;7.00;99.90;;;5.91;100.00;100883.19;4159392;28;20026;-78
2023/01/15 08:59:13;;;;;;;10.88;1.80;;;7.00;99.90;;;5.92;100.00;100892.69;4153118;28;20034;-78
2023/01/15 09:01:14;;;;;;;13.05;2.67;;;6.90;99.90;;;5.91;100.00;100891.03;4154378;28;20400;-78
2023/01/15 09:03:15;;;;;;;9.85;1.92;;;6.90;99.90;;;5.99;100.00;100893.88;4153494;28;20026;-79
2023/01/15 09:05:17;;;;;;;9.27;2.05;;;6.90;99.90;;;6.03;100.00;100879.59;4154290;28;20096;-79
2023/01/15 09:07:18;;;;;;;10.40;1.95;;;6.90;99.90;;;6.07;100.00;100887.06;4155587;28;20412;-78
2023/01/15 09:09:19;;;;;;;9.95;2.33;;;7.00;99.90;;;6.06;100.00;100890.63;4154315;28;20030;-79